Kojnas, Russia
Current Conditions -  °F | °C
As of 7:30 AM on Friday 31 Oct 2014 (Local Time) from ULAA Reporting Station
Broken Clouds Broken Clouds  
Wind Chill: 27°   Ceiling: 3800
Heat Index: 34°   Visibility: 6mi
Dew Point: 30°   Wind: 9mph
Humidity: 87%   Direction: 300°WNW
Pressure: 29.65"   Gusts: NA
Location:  64.75°N, 47.65°E
Report Text: ULAA 310430Z 30004MPS 260V330 9999 BKN038CB 01/M01 Q1004 TEMPO 1000 SHSN BKN004CB RMK QFE751/1002 SC060
Loading
Personal Weather Stations






























Interactive Weather Map
Tropical Storm Tracking
New forecast layout! Learn more

10-Day Weather Forecast

Advertisements
Track Severe Weather on mobile